sensor_id;sensor_type;location;lat;lon;timestamp;P1;durP1;ratioP1;P2;durP2;ratioP2
10633;SDS011;5365;51.640;8.106;2024-01-30T00:02:14;1.23;;;0.70;;
10633;SDS011;5365;51.640;8.106;2024-01-30T00:05:16;1.27;;;0.52;;
10633;SDS011;5365;51.640;8.106;2024-01-30T00:08:17;0.93;;;0.60;;
10633;SDS011;5365;51.640;8.106;2024-01-30T00:11:19;1.50;;;0.70;;
10633;SDS011;5365;51.640;8.106;2024-01-30T00:14:21;1.42;;;1.15;;
10633;SDS011;5365;51.640;8.106;2024-01-30T00:17:23;1.55;;;0.57;;
10633;SDS011;5365;51.640;8.106;2024-01-30T00:20:26;0.75;;;0.55;;
10633;SDS011;5365;51.640;8.106;2024-01-30T00:23:28;1.20;;;0.98;;
10633;SDS011;5365;51.640;8.106;2024-01-30T00:26:29;3.40;;;0.60;;
10633;SDS011;5365;51.640;8.106;2024-01-30T00:29:31;1.75;;;0.47;;
10633;SDS011;5365;51.640;8.106;2024-01-30T00:32:35;2.30;;;0.60;;
10633;SDS011;5365;51.640;8.106;2024-01-30T00:35:36;1.92;;;0.38;;
10633;SDS011;5365;51.640;8.106;2024-01-30T00:38:38;1.95;;;0.95;;
10633;SDS011;5365;51.640;8.106;2024-01-30T00:41:40;1.00;;;0.45;;
10633;SDS011;5365;51.640;8.106;2024-01-30T00:44:41;0.15;;;0.10;;
10633;SDS011;5365;51.640;8.106;2024-01-30T00:47:43;0.50;;;0.30;;
10633;SDS011;5365;51.640;8.106;2024-01-30T00:50:45;0.95;;;0.50;;
10633;SDS011;5365;51.640;8.106;2024-01-30T00:53:47;3.05;;;0.98;;
10633;SDS011;5365;51.640;8.106;2024-01-30T00:56:48;1.02;;;0.63;;
10633;SDS011;5365;51.640;8.106;2024-01-30T00:59:50;0.38;;;0.25;;
10633;SDS011;5365;51.640;8.106;2024-01-30T01:02:52;2.72;;;1.55;;
10633;SDS011;5365;51.640;8.106;2024-01-30T01:05:53;1.08;;;0.60;;
10633;SDS011;5365;51.640;8.106;2024-01-30T01:08:55;1.00;;;0.50;;
10633;SDS011;5365;51.640;8.106;2024-01-30T01:11:57;1.45;;;0.40;;
10633;SDS011;5365;51.640;8.106;2024-01-30T01:14:58;1.45;;;0.75;;
10633;SDS011;5365;51.640;8.106;2024-01-30T01:18:00;1.77;;;0.85;;
10633;SDS011;5365;51.640;8.106;2024-01-30T01:21:02;0.50;;;0.47;;
10633;SDS011;5365;51.640;8.106;2024-01-30T01:24:03;1.88;;;1.25;;
10633;SDS011;5365;51.640;8.106;2024-01-30T01:27:05;0.70;;;0.60;;
10633;SDS011;5365;51.640;8.106;2024-01-30T01:30:08;2.35;;;1.42;;
10633;SDS011;5365;51.640;8.106;2024-01-30T01:33:10;3.47;;;1.00;;
10633;SDS011;5365;51.640;8.106;2024-01-30T01:36:15;1.60;;;1.02;;
10633;SDS011;5365;51.640;8.106;2024-01-30T01:39:17;0.88;;;0.68;;
10633;SDS011;5365;51.640;8.106;2024-01-30T01:42:19;2.17;;;1.63;;
10633;SDS011;5365;51.640;8.106;2024-01-30T01:45:21;2.20;;;0.93;;
10633;SDS011;5365;51.640;8.106;2024-01-30T01:48:22;1.13;;;0.88;;
10633;SDS011;5365;51.640;8.106;2024-01-30T01:51:24;2.92;;;1.23;;
10633;SDS011;5365;51.640;8.106;2024-01-30T01:54:27;1.55;;;0.47;;
10633;SDS011;5365;51.640;8.106;2024-01-30T01:57:29;2.30;;;1.45;;
10633;SDS011;5365;51.640;8.106;2024-01-30T02:00:31;2.08;;;0.90;;
10633;SDS011;5365;51.640;8.106;2024-01-30T02:03:33;0.73;;;0.70;;
10633;SDS011;5365;51.640;8.106;2024-01-30T02:06:35;1.50;;;1.00;;
10633;SDS011;5365;51.640;8.106;2024-01-30T02:09:37;1.48;;;1.17;;
10633;SDS011;5365;51.640;8.106;2024-01-30T02:12:39;1.63;;;1.45;;
10633;SDS011;5365;51.640;8.106;2024-01-30T02:15:41;1.95;;;0.73;;
10633;SDS011;5365;51.640;8.106;2024-01-30T02:18:43;0.85;;;0.65;;
10633;SDS011;5365;51.640;8.106;2024-01-30T02:21:52;1.48;;;0.65;;
10633;SDS011;5365;51.640;8.106;2024-01-30T02:24:53;1.60;;;0.45;;
10633;SDS011;5365;51.640;8.106;2024-01-30T02:27:55;1.73;;;0.70;;
10633;SDS011;5365;51.640;8.106;2024-01-30T02:30:57;1.27;;;0.52;;
10633;SDS011;5365;51.640;8.106;2024-01-30T02:33:58;2.63;;;0.40;;
10633;SDS011;5365;51.640;8.106;2024-01-30T02:37:00;0.90;;;0.57;;
10633;SDS011;5365;51.640;8.106;2024-01-30T02:40:02;2.03;;;0.80;;
10633;SDS011;5365;51.640;8.106;2024-01-30T02:43:04;0.52;;;0.45;;
10633;SDS011;5365;51.640;8.106;2024-01-30T02:46:06;1.27;;;1.02;;
10633;SDS011;5365;51.640;8.106;2024-01-30T02:49:08;1.55;;;0.98;;
10633;SDS011;5365;51.640;8.106;2024-01-30T02:52:09;0.98;;;0.77;;
10633;SDS011;5365;51.640;8.106;2024-01-30T02:55:11;1.83;;;1.30;;
10633;SDS011;5365;51.640;8.106;2024-01-30T02:58:13;3.75;;;1.48;;
10633;SDS011;5365;51.640;8.106;2024-01-30T03:01:14;0.85;;;0.63;;
10633;SDS011;5365;51.640;8.106;2024-01-30T03:04:16;3.17;;;0.93;;
10633;SDS011;5365;51.640;8.106;2024-01-30T03:07:18;4.68;;;1.17;;
10633;SDS011;5365;51.640;8.106;2024-01-30T03:10:19;1.95;;;0.50;;
10633;SDS011;5365;51.640;8.106;2024-01-30T03:13:21;3.55;;;1.45;;
10633;SDS011;5365;51.640;8.106;2024-01-30T03:16:24;3.15;;;1.65;;
10633;SDS011;5365;51.640;8.106;2024-01-30T03:19:26;1.67;;;1.15;;
10633;SDS011;5365;51.640;8.106;2024-01-30T03:22:28;2.22;;;1.17;;
10633;SDS011;5365;51.640;8.106;2024-01-30T03:25:29;1.98;;;1.13;;
10633;SDS011;5365;51.640;8.106;2024-01-30T03:28:31;4.30;;;0.95;;
10633;SDS011;5365;51.640;8.106;2024-01-30T03:31:33;0.73;;;0.45;;
10633;SDS011;5365;51.640;8.106;2024-01-30T03:34:34;1.63;;;1.10;;
10633;SDS011;5365;51.640;8.106;2024-01-30T03:37:36;3.55;;;1.42;;
10633;SDS011;5365;51.640;8.106;2024-01-30T03:40:38;1.33;;;0.85;;
10633;SDS011;5365;51.640;8.106;2024-01-30T03:43:40;1.02;;;0.88;;
10633;SDS011;5365;51.640;8.106;2024-01-30T03:46:41;2.65;;;1.50;;
10633;SDS011;5365;51.640;8.106;2024-01-30T03:49:43;1.55;;;0.90;;
10633;SDS011;5365;51.640;8.106;2024-01-30T03:52:44;1.65;;;1.55;;
10633;SDS011;5365;51.640;8.106;2024-01-30T03:55:46;2.08;;;1.30;;
10633;SDS011;5365;51.640;8.106;2024-01-30T03:58:48;3.05;;;1.25;;
10633;SDS011;5365;51.640;8.106;2024-01-30T04:01:50;0.63;;;0.35;;
10633;SDS011;5365;51.640;8.106;2024-01-30T04:04:52;2.15;;;0.28;;
10633;SDS011;5365;51.640;8.106;2024-01-30T04:07:54;1.58;;;0.82;;
10633;SDS011;5365;51.640;8.106;2024-01-30T04:10:55;1.23;;;1.13;;
10633;SDS011;5365;51.640;8.106;2024-01-30T04:13:57;1.73;;;0.88;;
10633;SDS011;5365;51.640;8.106;2024-01-30T04:16:58;0.90;;;0.60;;
10633;SDS011;5365;51.640;8.106;2024-01-30T04:20:00;1.23;;;0.80;;
10633;SDS011;5365;51.640;8.106;2024-01-30T04:23:02;1.73;;;1.58;;
10633;SDS011;5365;51.640;8.106;2024-01-30T04:26:03;2.92;;;1.05;;
10633;SDS011;5365;51.640;8.106;2024-01-30T04:29:05;1.50;;;0.93;;
10633;SDS011;5365;51.640;8.106;2024-01-30T04:32:07;2.20;;;1.25;;
10633;SDS011;5365;51.640;8.106;2024-01-30T04:35:08;0.57;;;0.40;;
10633;SDS011;5365;51.640;8.106;2024-01-30T04:38:10;1.17;;;0.52;;
10633;SDS011;5365;51.640;8.106;2024-01-30T04:41:12;2.75;;;0.63;;
10633;SDS011;5365;51.640;8.106;2024-01-30T04:44:14;3.38;;;1.55;;
10633;SDS011;5365;51.640;8.106;2024-01-30T04:47:16;1.40;;;0.93;;
10633;SDS011;5365;51.640;8.106;2024-01-30T04:50:17;0.73;;;0.70;;
10633;SDS011;5365;51.640;8.106;2024-01-30T04:53:19;0.98;;;0.60;;
10633;SDS011;5365;51.640;8.106;2024-01-30T04:56:21;1.33;;;1.00;;
10633;SDS011;5365;51.640;8.106;2024-01-30T04:59:23;1.50;;;0.93;;
10633;SDS011;5365;51.640;8.106;2024-01-30T05:02:24;1.88;;;1.00;;
10633;SDS011;5365;51.640;8.106;2024-01-30T05:05:26;2.75;;;0.80;;
10633;SDS011;5365;51.640;8.106;2024-01-30T05:08:28;2.28;;;1.23;;
10633;SDS011;5365;51.640;8.106;2024-01-30T05:11:30;2.55;;;1.33;;
10633;SDS011;5365;51.640;8.106;2024-01-30T05:14:32;2.33;;;1.02;;
10633;SDS011;5365;51.640;8.106;2024-01-30T05:17:33;0.68;;;0.68;;
10633;SDS011;5365;51.640;8.106;2024-01-30T05:20:35;0.90;;;0.90;;
10633;SDS011;5365;51.640;8.106;2024-01-30T05:23:37;2.17;;;1.05;;
10633;SDS011;5365;51.640;8.106;2024-01-30T05:26:38;1.73;;;1.23;;
10633;SDS011;5365;51.640;8.106;2024-01-30T05:29:40;1.00;;;0.85;;
10633;SDS011;5365;51.640;8.106;2024-01-30T05:32:43;0.15;;;0.15;;
10633;SDS011;5365;51.640;8.106;2024-01-30T05:35:44;0.98;;;0.85;;
10633;SDS011;5365;51.640;8.106;2024-01-30T05:38:47;1.35;;;0.63;;
10633;SDS011;5365;51.640;8.106;2024-01-30T05:41:48;0.70;;;0.40;;
10633;SDS011;5365;51.640;8.106;2024-01-30T05:44:50;3.97;;;1.02;;
10633;SDS011;5365;51.640;8.106;2024-01-30T05:47:52;2.05;;;1.58;;
10633;SDS011;5365;51.640;8.106;2024-01-30T05:50:54;0.93;;;0.65;;
10633;SDS011;5365;51.640;8.106;2024-01-30T05:53:56;0.65;;;0.65;;
10633;SDS011;5365;51.640;8.106;2024-01-30T05:56:58;2.05;;;0.73;;
10633;SDS011;5365;51.640;8.106;2024-01-30T05:59:59;0.65;;;0.65;;
10633;SDS011;5365;51.640;8.106;2024-01-30T06:03:01;0.93;;;0.52;;
10633;SDS011;5365;51.640;8.106;2024-01-30T06:06:03;1.48;;;0.70;;
10633;SDS011;5365;51.640;8.106;2024-01-30T06:09:05;1.38;;;1.27;;
10633;SDS011;5365;51.640;8.106;2024-01-30T06:12:06;1.33;;;0.93;;
10633;SDS011;5365;51.640;8.106;2024-01-30T06:15:08;0.20;;;0.05;;
10633;SDS011;5365;51.640;8.106;2024-01-30T06:18:10;0.70;;;0.63;;
10633;SDS011;5365;51.640;8.106;2024-01-30T06:21:11;0.30;;;0.30;;
10633;SDS011;5365;51.640;8.106;2024-01-30T06:24:13;2.35;;;1.10;;
10633;SDS011;5365;51.640;8.106;2024-01-30T06:27:15;1.52;;;0.98;;
10633;SDS011;5365;51.640;8.106;2024-01-30T06:30:17;1.90;;;0.95;;
10633;SDS011;5365;51.640;8.106;2024-01-30T06:33:19;1.30;;;1.02;;
10633;SDS011;5365;51.640;8.106;2024-01-30T06:36:20;5.22;;;1.33;;
10633;SDS011;5365;51.640;8.106;2024-01-30T06:39:22;1.20;;;0.85;;
10633;SDS011;5365;51.640;8.106;2024-01-30T06:42:24;2.30;;;0.85;;
10633;SDS011;5365;51.640;8.106;2024-01-30T06:45:26;0.45;;;0.30;;
10633;SDS011;5365;51.640;8.106;2024-01-30T06:48:28;1.42;;;0.93;;
10633;SDS011;5365;51.640;8.106;2024-01-30T06:51:29;2.10;;;0.70;;
10633;SDS011;5365;51.640;8.106;2024-01-30T06:54:31;0.82;;;0.50;;
10633;SDS011;5365;51.640;8.106;2024-01-30T06:57:32;4.47;;;0.88;;
10633;SDS011;5365;51.640;8.106;2024-01-30T07:00:34;1.95;;;0.73;;
10633;SDS011;5365;51.640;8.106;2024-01-30T07:03:36;3.03;;;0.98;;
10633;SDS011;5365;51.640;8.106;2024-01-30T07:06:37;1.80;;;1.50;;
10633;SDS011;5365;51.640;8.106;2024-01-30T07:09:39;0.55;;;0.40;;
10633;SDS011;5365;51.640;8.106;2024-01-30T07:12:41;1.67;;;1.27;;
10633;SDS011;5365;51.640;8.106;2024-01-30T07:15:42;0.93;;;0.90;;
10633;SDS011;5365;51.640;8.106;2024-01-30T07:18:44;1.55;;;0.98;;
10633;SDS011;5365;51.640;8.106;2024-01-30T07:21:46;0.28;;;0.22;;
10633;SDS011;5365;51.640;8.106;2024-01-30T07:24:48;2.05;;;0.98;;
10633;SDS011;5365;51.640;8.106;2024-01-30T07:27:50;0.63;;;0.45;;
10633;SDS011;5365;51.640;8.106;2024-01-30T07:30:52;2.05;;;0.68;;
10633;SDS011;5365;51.640;8.106;2024-01-30T07:33:54;1.65;;;1.20;;
10633;SDS011;5365;51.640;8.106;2024-01-30T07:36:56;0.80;;;0.80;;
10633;SDS011;5365;51.640;8.106;2024-01-30T07:39:57;0.98;;;0.70;;
10633;SDS011;5365;51.640;8.106;2024-01-30T07:42:59;6.63;;;1.60;;
10633;SDS011;5365;51.640;8.106;2024-01-30T07:46:02;1.25;;;1.02;;
10633;SDS011;5365;51.640;8.106;2024-01-30T07:49:04;3.25;;;1.45;;
10633;SDS011;5365;51.640;8.106;2024-01-30T07:52:06;1.77;;;0.98;;
10633;SDS011;5365;51.640;8.106;2024-01-30T07:55:08;2.38;;;1.35;;
10633;SDS011;5365;51.640;8.106;2024-01-30T07:58:10;2.70;;;1.48;;
10633;SDS011;5365;51.640;8.106;2024-01-30T08:01:12;2.13;;;0.88;;
10633;SDS011;5365;51.640;8.106;2024-01-30T08:04:13;1.10;;;0.43;;
10633;SDS011;5365;51.640;8.106;2024-01-30T08:07:15;1.75;;;0.85;;
10633;SDS011;5365;51.640;8.106;2024-01-30T08:10:18;3.15;;;0.98;;
10633;SDS011;5365;51.640;8.106;2024-01-30T08:13:20;4.28;;;1.23;;
10633;SDS011;5365;51.640;8.106;2024-01-30T08:16:22;2.15;;;1.52;;
10633;SDS011;5365;51.640;8.106;2024-01-30T08:19:24;1.92;;;1.02;;
10633;SDS011;5365;51.640;8.106;2024-01-30T08:22:25;5.30;;;2.22;;
10633;SDS011;5365;51.640;8.106;2024-01-30T08:25:27;4.50;;;2.20;;
10633;SDS011;5365;51.640;8.106;2024-01-30T08:28:29;5.32;;;1.45;;
10633;SDS011;5365;51.640;8.106;2024-01-30T08:31:31;2.38;;;1.45;;
10633;SDS011;5365;51.640;8.106;2024-01-30T08:34:32;4.50;;;1.90;;
10633;SDS011;5365;51.640;8.106;2024-01-30T08:37:34;1.27;;;1.17;;
10633;SDS011;5365;51.640;8.106;2024-01-30T08:40:36;3.78;;;2.67;;
10633;SDS011;5365;51.640;8.106;2024-01-30T08:43:38;1.70;;;0.68;;
10633;SDS011;5365;51.640;8.106;2024-01-30T08:46:40;0.65;;;0.65;;
10633;SDS011;5365;51.640;8.106;2024-01-30T08:49:43;3.63;;;1.90;;
10633;SDS011;5365;51.640;8.106;2024-01-30T08:52:45;3.70;;;2.60;;
10633;SDS011;5365;51.640;8.106;2024-01-30T08:55:47;5.20;;;2.38;;
10633;SDS011;5365;51.640;8.106;2024-01-30T08:58:49;3.47;;;1.67;;
10633;SDS011;5365;51.640;8.106;2024-01-30T09:01:51;3.22;;;2.20;;
10633;SDS011;5365;51.640;8.106;2024-01-30T09:04:55;3.53;;;1.92;;
10633;SDS011;5365;51.640;8.106;2024-01-30T09:07:58;1.92;;;1.30;;
10633;SDS011;5365;51.640;8.106;2024-01-30T09:10:59;1.92;;;1.27;;
10633;SDS011;5365;51.640;8.106;2024-01-30T09:14:01;1.88;;;1.35;;
10633;SDS011;5365;51.640;8.106;2024-01-30T09:17:03;2.72;;;1.48;;
10633;SDS011;5365;51.640;8.106;2024-01-30T09:20:05;2.15;;;0.95;;
10633;SDS011;5365;51.640;8.106;2024-01-30T09:23:07;2.38;;;1.30;;
10633;SDS011;5365;51.640;8.106;2024-01-30T09:26:09;2.80;;;0.88;;
10633;SDS011;5365;51.640;8.106;2024-01-30T09:29:11;3.15;;;1.60;;
10633;SDS011;5365;51.640;8.106;2024-01-30T09:32:12;1.88;;;1.38;;
10633;SDS011;5365;51.640;8.106;2024-01-30T09:35:14;2.40;;;0.95;;
10633;SDS011;5365;51.640;8.106;2024-01-30T09:38:16;2.90;;;1.30;;
10633;SDS011;5365;51.640;8.106;2024-01-30T09:41:17;1.67;;;1.02;;
10633;SDS011;5365;51.640;8.106;2024-01-30T09:44:20;6.28;;;1.95;;
10633;SDS011;5365;51.640;8.106;2024-01-30T09:47:23;4.90;;;1.65;;
10633;SDS011;5365;51.640;8.106;2024-01-30T09:50:25;1.73;;;1.02;;
10633;SDS011;5365;51.640;8.106;2024-01-30T09:53:26;3.70;;;1.20;;
10633;SDS011;5365;51.640;8.106;2024-01-30T09:56:28;2.15;;;1.35;;
10633;SDS011;5365;51.640;8.106;2024-01-30T09:59:31;2.90;;;1.45;;
10633;SDS011;5365;51.640;8.106;2024-01-30T10:02:33;1.05;;;0.52;;
10633;SDS011;5365;51.640;8.106;2024-01-30T10:05:35;2.28;;;1.02;;
10633;SDS011;5365;51.640;8.106;2024-01-30T10:08:38;3.60;;;1.30;;
10633;SDS011;5365;51.640;8.106;2024-01-30T10:11:40;3.08;;;1.30;;
10633;SDS011;5365;51.640;8.106;2024-01-30T10:14:42;3.63;;;1.35;;
10633;SDS011;5365;51.640;8.106;2024-01-30T10:17:44;2.47;;;1.33;;
10633;SDS011;5365;51.640;8.106;2024-01-30T10:20:46;3.45;;;1.40;;
10633;SDS011;5365;51.640;8.106;2024-01-30T10:23:48;2.05;;;1.63;;
10633;SDS011;5365;51.640;8.106;2024-01-30T10:26:50;4.45;;;1.42;;
10633;SDS011;5365;51.640;8.106;2024-01-30T10:29:53;2.78;;;1.00;;
10633;SDS011;5365;51.640;8.106;2024-01-30T10:32:55;4.03;;;2.08;;
10633;SDS011;5365;51.640;8.106;2024-01-30T10:36:00;2.80;;;1.17;;
10633;SDS011;5365;51.640;8.106;2024-01-30T10:39:02;1.75;;;1.38;;
10633;SDS011;5365;51.640;8.106;2024-01-30T10:45:09;3.15;;;1.30;;
10633;SDS011;5365;51.640;8.106;2024-01-30T10:48:12;2.53;;;0.85;;
10633;SDS011;5365;51.640;8.106;2024-01-30T10:51:14;5.28;;;1.35;;
10633;SDS011;5365;51.640;8.106;2024-01-30T10:54:17;3.92;;;1.42;;
10633;SDS011;5365;51.640;8.106;2024-01-30T10:57:19;3.22;;;1.30;;
10633;SDS011;5365;51.640;8.106;2024-01-30T11:00:21;3.03;;;1.52;;
10633;SDS011;5365;51.640;8.106;2024-01-30T11:03:25;3.65;;;1.08;;
10633;SDS011;5365;51.640;8.106;2024-01-30T11:06:27;3.22;;;1.48;;
10633;SDS011;5365;51.640;8.106;2024-01-30T11:09:28;6.60;;;1.60;;
10633;SDS011;5365;51.640;8.106;2024-01-30T11:12:31;3.20;;;1.70;;
10633;SDS011;5365;51.640;8.106;2024-01-30T11:15:37;4.07;;;0.93;;
10633;SDS011;5365;51.640;8.106;2024-01-30T11:18:39;3.20;;;1.50;;
10633;SDS011;5365;51.640;8.106;2024-01-30T11:21:41;2.03;;;1.00;;
10633;SDS011;5365;51.640;8.106;2024-01-30T11:24:43;4.38;;;0.98;;
10633;SDS011;5365;51.640;8.106;2024-01-30T11:27:45;3.05;;;1.45;;
10633;SDS011;5365;51.640;8.106;2024-01-30T11:30:47;8.88;;;1.45;;
10633;SDS011;5365;51.640;8.106;2024-01-30T11:33:52;4.20;;;1.20;;
10633;SDS011;5365;51.640;8.106;2024-01-30T11:37:00;4.50;;;1.02;;
10633;SDS011;5365;51.640;8.106;2024-01-30T11:40:04;2.47;;;1.08;;
10633;SDS011;5365;51.640;8.106;2024-01-30T11:43:08;3.28;;;1.38;;
10633;SDS011;5365;51.640;8.106;2024-01-30T11:46:10;5.28;;;1.42;;
10633;SDS011;5365;51.640;8.106;2024-01-30T11:49:12;2.17;;;1.50;;
10633;SDS011;5365;51.640;8.106;2024-01-30T11:52:14;2.65;;;1.90;;
10633;SDS011;5365;51.640;8.106;2024-01-30T11:55:16;2.17;;;1.20;;
10633;SDS011;5365;51.640;8.106;2024-01-30T11:58:18;3.95;;;1.63;;
10633;SDS011;5365;51.640;8.106;2024-01-30T12:01:19;5.38;;;2.10;;
10633;SDS011;5365;51.640;8.106;2024-01-30T12:04:21;3.63;;;1.92;;
10633;SDS011;5365;51.640;8.106;2024-01-30T12:07:23;3.33;;;1.20;;
10633;SDS011;5365;51.640;8.106;2024-01-30T12:10:25;9.07;;;2.10;;
10633;SDS011;5365;51.640;8.106;2024-01-30T12:13:27;4.07;;;1.40;;
10633;SDS011;5365;51.640;8.106;2024-01-30T12:16:31;2.47;;;1.23;;
10633;SDS011;5365;51.640;8.106;2024-01-30T12:19:33;4.05;;;2.00;;
10633;SDS011;5365;51.640;8.106;2024-01-30T12:22:41;2.95;;;1.20;;
10633;SDS011;5365;51.640;8.106;2024-01-30T12:25:47;3.13;;;1.27;;
10633;SDS011;5365;51.640;8.106;2024-01-30T12:28:49;2.50;;;1.73;;
10633;SDS011;5365;51.640;8.106;2024-01-30T12:31:54;3.53;;;1.40;;
10633;SDS011;5365;51.640;8.106;2024-01-30T12:38:01;2.40;;;1.33;;
10633;SDS011;5365;51.640;8.106;2024-01-30T12:41:03;5.93;;;2.08;;
10633;SDS011;5365;51.640;8.106;2024-01-30T12:44:06;4.63;;;1.98;;
10633;SDS011;5365;51.640;8.106;2024-01-30T12:47:08;2.92;;;1.70;;
10633;SDS011;5365;51.640;8.106;2024-01-30T12:50:10;3.78;;;1.63;;
10633;SDS011;5365;51.640;8.106;2024-01-30T12:53:13;2.85;;;1.30;;
10633;SDS011;5365;51.640;8.106;2024-01-30T12:56:15;3.95;;;1.98;;
10633;SDS011;5365;51.640;8.106;2024-01-30T12:59:17;6.63;;;2.17;;
10633;SDS011;5365;51.640;8.106;2024-01-30T13:02:19;5.05;;;1.80;;
10633;SDS011;5365;51.640;8.106;2024-01-30T13:05:20;4.50;;;2.05;;
10633;SDS011;5365;51.640;8.106;2024-01-30T13:08:22;2.15;;;1.30;;
10633;SDS011;5365;51.640;8.106;2024-01-30T13:11:24;6.05;;;1.17;;
10633;SDS011;5365;51.640;8.106;2024-01-30T13:14:27;4.65;;;1.80;;
10633;SDS011;5365;51.640;8.106;2024-01-30T13:17:29;2.92;;;1.30;;
10633;SDS011;5365;51.640;8.106;2024-01-30T13:20:30;2.28;;;1.42;;
10633;SDS011;5365;51.640;8.106;2024-01-30T13:23:32;6.15;;;2.03;;
10633;SDS011;5365;51.640;8.106;2024-01-30T13:26:34;5.78;;;2.53;;
10633;SDS011;5365;51.640;8.106;2024-01-30T13:29:36;5.55;;;1.40;;
10633;SDS011;5365;51.640;8.106;2024-01-30T13:32:37;4.90;;;2.15;;
10633;SDS011;5365;51.640;8.106;2024-01-30T13:35:39;4.40;;;1.40;;
10633;SDS011;5365;51.640;8.106;2024-01-30T13:38:41;4.10;;;1.65;;
10633;SDS011;5365;51.640;8.106;2024-01-30T13:41:42;4.13;;;1.92;;
10633;SDS011;5365;51.640;8.106;2024-01-30T13:44:44;6.80;;;1.67;;
10633;SDS011;5365;51.640;8.106;2024-01-30T13:47:46;8.07;;;2.33;;
10633;SDS011;5365;51.640;8.106;2024-01-30T13:50:48;3.40;;;2.20;;
10633;SDS011;5365;51.640;8.106;2024-01-30T13:53:49;8.07;;;1.92;;
10633;SDS011;5365;51.640;8.106;2024-01-30T13:56:51;4.50;;;1.90;;
10633;SDS011;5365;51.640;8.106;2024-01-30T14:00:07;4.35;;;1.85;;
10633;SDS011;5365;51.640;8.106;2024-01-30T14:03:15;9.13;;;1.58;;
10633;SDS011;5365;51.640;8.106;2024-01-30T14:06:16;3.20;;;1.75;;
10633;SDS011;5365;51.640;8.106;2024-01-30T14:09:18;3.53;;;1.60;;
10633;SDS011;5365;51.640;8.106;2024-01-30T14:12:20;4.38;;;1.85;;
10633;SDS011;5365;51.640;8.106;2024-01-30T14:15:21;2.65;;;1.48;;
10633;SDS011;5365;51.640;8.106;2024-01-30T14:18:23;3.58;;;1.75;;
10633;SDS011;5365;51.640;8.106;2024-01-30T14:21:27;4.10;;;2.15;;
10633;SDS011;5365;51.640;8.106;2024-01-30T14:24:28;4.50;;;2.30;;
10633;SDS011;5365;51.640;8.106;2024-01-30T14:27:30;5.03;;;1.85;;
10633;SDS011;5365;51.640;8.106;2024-01-30T14:30:32;2.53;;;1.45;;
10633;SDS011;5365;51.640;8.106;2024-01-30T14:33:33;2.83;;;1.60;;
10633;SDS011;5365;51.640;8.106;2024-01-30T14:36:35;5.25;;;2.13;;
10633;SDS011;5365;51.640;8.106;2024-01-30T14:39:37;5.30;;;2.25;;
10633;SDS011;5365;51.640;8.106;2024-01-30T14:42:38;3.85;;;1.92;;
10633;SDS011;5365;51.640;8.106;2024-01-30T14:45:40;2.78;;;1.23;;
10633;SDS011;5365;51.640;8.106;2024-01-30T14:48:43;4.15;;;1.42;;
10633;SDS011;5365;51.640;8.106;2024-01-30T14:51:44;5.10;;;2.10;;
10633;SDS011;5365;51.640;8.106;2024-01-30T14:54:48;4.60;;;1.98;;
10633;SDS011;5365;51.640;8.106;2024-01-30T14:57:50;6.32;;;1.80;;
10633;SDS011;5365;51.640;8.106;2024-01-30T15:00:52;4.75;;;2.28;;
10633;SDS011;5365;51.640;8.106;2024-01-30T15:03:53;5.35;;;2.42;;
10633;SDS011;5365;51.640;8.106;2024-01-30T15:06:56;5.45;;;1.80;;
10633;SDS011;5365;51.640;8.106;2024-01-30T15:09:58;4.63;;;2.28;;
10633;SDS011;5365;51.640;8.106;2024-01-30T15:13:00;4.97;;;2.63;;
10633;SDS011;5365;51.640;8.106;2024-01-30T15:16:02;3.67;;;1.92;;
10633;SDS011;5365;51.640;8.106;2024-01-30T15:19:04;3.13;;;1.77;;
10633;SDS011;5365;51.640;8.106;2024-01-30T15:22:06;6.35;;;2.35;;
10633;SDS011;5365;51.640;8.106;2024-01-30T15:25:08;2.83;;;1.92;;
10633;SDS011;5365;51.640;8.106;2024-01-30T15:28:10;5.85;;;1.98;;
10633;SDS011;5365;51.640;8.106;2024-01-30T15:31:12;6.55;;;2.40;;
10633;SDS011;5365;51.640;8.106;2024-01-30T15:34:13;5.65;;;1.95;;
10633;SDS011;5365;51.640;8.106;2024-01-30T15:37:15;4.18;;;2.20;;
10633;SDS011;5365;51.640;8.106;2024-01-30T15:40:17;3.88;;;2.15;;
10633;SDS011;5365;51.640;8.106;2024-01-30T15:43:19;5.60;;;2.95;;
10633;SDS011;5365;51.640;8.106;2024-01-30T15:46:21;4.00;;;1.67;;
10633;SDS011;5365;51.640;8.106;2024-01-30T15:49:23;3.38;;;2.05;;
10633;SDS011;5365;51.640;8.106;2024-01-30T15:52:25;2.40;;;1.48;;
10633;SDS011;5365;51.640;8.106;2024-01-30T15:55:26;2.40;;;1.90;;
10633;SDS011;5365;51.640;8.106;2024-01-30T15:58:29;6.80;;;2.95;;
10633;SDS011;5365;51.640;8.106;2024-01-30T16:01:31;2.05;;;1.55;;
10633;SDS011;5365;51.640;8.106;2024-01-30T16:04:33;4.53;;;1.83;;
10633;SDS011;5365;51.640;8.106;2024-01-30T16:07:35;5.90;;;2.80;;
10633;SDS011;5365;51.640;8.106;2024-01-30T16:10:37;5.05;;;2.20;;
10633;SDS011;5365;51.640;8.106;2024-01-30T16:13:38;3.75;;;2.25;;
10633;SDS011;5365;51.640;8.106;2024-01-30T16:16:41;4.35;;;2.13;;
10633;SDS011;5365;51.640;8.106;2024-01-30T16:19:43;2.70;;;1.40;;
10633;SDS011;5365;51.640;8.106;2024-01-30T16:22:44;6.78;;;2.20;;
10633;SDS011;5365;51.640;8.106;2024-01-30T16:25:46;3.72;;;1.77;;
10633;SDS011;5365;51.640;8.106;2024-01-30T16:28:48;3.00;;;1.63;;
10633;SDS011;5365;51.640;8.106;2024-01-30T16:31:49;2.97;;;1.60;;
10633;SDS011;5365;51.640;8.106;2024-01-30T16:34:51;4.25;;;2.42;;
10633;SDS011;5365;51.640;8.106;2024-01-30T16:37:53;2.42;;;1.50;;
10633;SDS011;5365;51.640;8.106;2024-01-30T16:40:56;2.33;;;1.52;;
10633;SDS011;5365;51.640;8.106;2024-01-30T16:43:57;5.30;;;2.58;;
10633;SDS011;5365;51.640;8.106;2024-01-30T16:46:59;4.90;;;1.60;;
10633;SDS011;5365;51.640;8.106;2024-01-30T16:50:01;5.97;;;2.28;;
10633;SDS011;5365;51.640;8.106;2024-01-30T16:53:02;3.17;;;1.90;;
10633;SDS011;5365;51.640;8.106;2024-01-30T16:56:04;2.65;;;1.50;;
10633;SDS011;5365;51.640;8.106;2024-01-30T16:59:06;7.45;;;3.58;;
10633;SDS011;5365;51.640;8.106;2024-01-30T17:02:07;3.70;;;2.35;;
10633;SDS011;5365;51.640;8.106;2024-01-30T17:05:09;3.40;;;1.83;;
10633;SDS011;5365;51.640;8.106;2024-01-30T17:08:11;10.35;;;2.72;;
10633;SDS011;5365;51.640;8.106;2024-01-30T17:11:13;4.00;;;2.35;;
10633;SDS011;5365;51.640;8.106;2024-01-30T17:14:15;7.30;;;2.75;;
10633;SDS011;5365;51.640;8.106;2024-01-30T17:17:19;3.10;;;1.60;;
10633;SDS011;5365;51.640;8.106;2024-01-30T17:20:21;1.67;;;0.85;;
10633;SDS011;5365;51.640;8.106;2024-01-30T17:23:24;3.47;;;1.30;;
10633;SDS011;5365;51.640;8.106;2024-01-30T17:26:27;2.50;;;0.68;;
10633;SDS011;5365;51.640;8.106;2024-01-30T17:29:28;1.88;;;0.82;;
10633;SDS011;5365;51.640;8.106;2024-01-30T17:32:30;1.63;;;0.60;;
10633;SDS011;5365;51.640;8.106;2024-01-30T17:35:32;2.30;;;0.73;;
10633;SDS011;5365;51.640;8.106;2024-01-30T17:38:34;0.95;;;0.47;;
10633;SDS011;5365;51.640;8.106;2024-01-30T17:41:38;1.63;;;0.85;;
10633;SDS011;5365;51.640;8.106;2024-01-30T17:44:39;0.73;;;0.50;;
10633;SDS011;5365;51.640;8.106;2024-01-30T17:47:41;0.85;;;0.32;;
10633;SDS011;5365;51.640;8.106;2024-01-30T17:50:43;2.50;;;0.65;;
10633;SDS011;5365;51.640;8.106;2024-01-30T17:53:45;0.55;;;0.40;;
10633;SDS011;5365;51.640;8.106;2024-01-30T17:56:47;0.52;;;0.35;;
10633;SDS011;5365;51.640;8.106;2024-01-30T17:59:49;1.90;;;0.47;;
10633;SDS011;5365;51.640;8.106;2024-01-30T18:02:51;2.72;;;0.73;;
10633;SDS011;5365;51.640;8.106;2024-01-30T18:05:54;0.77;;;0.15;;
10633;SDS011;5365;51.640;8.106;2024-01-30T18:08:56;0.22;;;0.08;;
10633;SDS011;5365;51.640;8.106;2024-01-30T18:11:58;2.72;;;1.02;;
10633;SDS011;5365;51.640;8.106;2024-01-30T18:15:00;1.90;;;0.63;;
10633;SDS011;5365;51.640;8.106;2024-01-30T18:18:01;1.35;;;0.55;;
10633;SDS011;5365;51.640;8.106;2024-01-30T18:21:03;0.35;;;0.10;;
10633;SDS011;5365;51.640;8.106;2024-01-30T18:24:05;4.22;;;1.17;;
10633;SDS011;5365;51.640;8.106;2024-01-30T18:27:07;1.65;;;0.57;;
10633;SDS011;5365;51.640;8.106;2024-01-30T18:30:10;1.08;;;0.38;;
10633;SDS011;5365;51.640;8.106;2024-01-30T18:33:12;1.10;;;0.50;;
10633;SDS011;5365;51.640;8.106;2024-01-30T18:36:19;0.40;;;0.10;;
10633;SDS011;5365;51.640;8.106;2024-01-30T18:39:23;3.17;;;0.68;;